Berriobeiti, Spain
Current Conditions -  °F | °C
As of 4:00 PM on Thursday 30 Oct 2014 (Local Time) from LEPP Reporting Station
Clear Clear  
Wind Chill: 70°   Ceiling: Unl
Heat Index: 70°   Visibility: 6mi
Dew Point: 57°   Wind: 3mph
Humidity: 64%   Direction: 140°SE
Pressure: 30.18"   Gusts: NA
Location:  42.85°N, 1.7°W
Report Text: LEPP 301500Z 14003KT 070V210 CAVOK 21/14 Q1022
Loading
Personal Weather Stations






























Interactive Weather Map
Tropical Storm Tracking
New forecast layout! Learn more

10-Day Weather Forecast

Advertisements
Track Severe Weather on mobile